Time;durP1;ratioP1;P1;durP2;ratioP2;P2;SDS_P1;SDS_P2;PMS_P1;PMS_P2;Temp;Humidity;BMP_temperature;BMP_pressure;BME280_temperature;BME280_humidity;BME280_pressure;Samples;Min_cycle;Max_cycle;Signal;HPM_P1;HPM_P2
2021/10/13 00:00:42;;;;;;;;;;;22.50;45.70;;;;;;1539996;75;747;-59
2021/10/13 00:02:45;;;;;;;;;;;22.50;45.70;;;;;;1547855;75;757;-59
2021/10/13 00:04:46;;;;;;;;;;;22.50;45.70;;;;;;1536222;75;1924;-58
2021/10/13 00:06:48;;;;;;;;;;;22.50;45.70;;;;;;1524035;75;687;-58
2021/10/13 00:08:50;;;;;;;;;;;22.50;45.70;;;;;;1534933;75;728;-57
2021/10/13 00:10:52;;;;;;;;;;;22.50;45.60;;;;;;1529675;75;746;-60
2021/10/13 00:12:54;;;;;;;;;;;22.50;45.60;;;;;;1529841;75;717;-59
2021/10/13 00:14:56;;;;;;;;;;;22.40;45.40;;;;;;1524973;75;1210;-59
2021/10/13 00:17:05;;;;;;;;;;;22.50;45.60;;;;;;1525011;75;742;-59
2021/10/13 00:19:07;;;;;;;;;;;22.50;45.50;;;;;;1547092;75;723;-58
2021/10/13 00:21:09;;;;;;;;;;;22.50;45.60;;;;;;1545568;75;739;-58
2021/10/13 00:23:11;;;;;;;;;;;22.50;45.60;;;;;;1535895;75;693;-60
2021/10/13 00:25:13;;;;;;;;;;;22.50;45.50;;;;;;1545803;75;1929;-58
2021/10/13 00:27:15;;;;;;;;;;;22.50;45.60;;;;;;1542316;75;843;-59
2021/10/13 00:29:17;;;;;;;;;;;22.50;45.60;;;;;;1518910;75;804;-61
2021/10/13 00:31:18;;;;;;;;;;;22.40;45.40;;;;;;1522690;75;767;-59
2021/10/13 00:33:20;;;;;;;;;;;22.50;45.50;;;;;;1535251;75;742;-61
2021/10/13 00:35:22;;;;;;;;;;;22.50;45.50;;;;;;1540149;75;1137;-59
2021/10/13 00:37:24;;;;;;;;;;;22.50;45.50;;;;;;1533500;75;661;-57
2021/10/13 00:39:26;;;;;;;;;;;22.50;45.50;;;;;;1538467;75;709;-59
2021/10/13 00:41:28;;;;;;;;;;;22.50;45.50;;;;;;1551294;75;791;-58
2021/10/13 00:43:30;;;;;;;;;;;22.40;45.40;;;;;;1553867;75;806;-60
2021/10/13 00:45:32;;;;;;;;;;;22.50;45.60;;;;;;1547194;75;1931;-59
2021/10/13 00:47:35;;;;;;;;;;;22.50;45.60;;;;;;1563486;75;778;-58
2021/10/13 00:49:37;;;;;;;;;;;22.50;45.60;;;;;;1555663;75;1008;-59
2021/10/13 00:51:39;;;;;;;;;;;22.50;45.60;;;;;;1533817;75;729;-60
2021/10/13 00:53:41;;;;;;;;;;;22.50;45.50;;;;;;1540541;75;762;-59
2021/10/13 00:55:42;;;;;;;;;;;22.50;45.50;;;;;;1538125;75;1151;-59
2021/10/13 00:57:44;;;;;;;;;;;22.50;45.50;;;;;;1545699;75;777;-59
2021/10/13 00:59:46;;;;;;;;;;;22.50;45.50;;;;;;1533511;75;876;-59
2021/10/13 01:01:56;;;;;;;;;;;22.50;45.50;;;;;;1554213;75;731;-58
2021/10/13 01:04:08;;;;;;;;;;;22.50;45.50;;;;;;1545931;75;1996;-57
2021/10/13 01:06:27;;;;;;;;;;;22.50;45.40;;;;;;1553646;75;1931;-59
2021/10/13 01:08:37;;;;;;;;;;;22.40;45.30;;;;;;1538781;76;2110;-59
2021/10/13 01:10:57;;;;;;;;;;;22.50;45.40;;;;;;1504541;76;1256;-59
2021/10/13 01:13:00;;;;;;;;;;;22.50;45.50;;;;;;1556509;76;749;-58
2021/10/13 01:15:16;;;;;;;;;;;22.50;45.40;;;;;;1529974;76;2067;-59
2021/10/13 01:17:28;;;;;;;;;;;22.40;45.30;;;;;;1526114;76;718;-60
2021/10/13 01:19:44;;;;;;;;;;;22.50;45.40;;;;;;1493469;78;1275;-61
2021/10/13 01:21:47;;;;;;;;;;;22.50;45.40;;;;;;1548615;76;939;-58
2021/10/13 01:24:07;;;;;;;;;;;22.50;45.40;;;;;;1553895;76;957;-60
2021/10/13 01:26:11;;;;;;;;;;;22.50;45.40;;;;;;1525972;76;1955;-57
2021/10/13 01:28:13;;;;;;;;;;;22.40;45.30;;;;;;1542231;76;723;-58
2021/10/13 01:30:15;;;;;;;;;;;22.50;45.50;;;;;;1540261;76;748;-60
2021/10/13 01:32:21;;;;;;;;;;;22.40;45.30;;;;;;1525867;76;780;-61
2021/10/13 01:34:25;;;;;;;;;;;22.50;45.40;;;;;;1549748;76;1115;-59
2021/10/13 01:36:28;;;;;;;;;;;22.40;45.30;;;;;;1523043;76;691;-60
2021/10/13 01:38:31;;;;;;;;;;;22.40;45.30;;;;;;1540031;76;1090;-60
2021/10/13 01:40:33;;;;;;;;;;;22.40;45.30;;;;;;1543262;76;713;-60
2021/10/13 01:42:35;;;;;;;;;;;22.50;45.40;;;;;;1527860;76;718;-60
2021/10/13 01:44:37;;;;;;;;;;;22.40;45.40;;;;;;1525126;76;1944;-59
2021/10/13 01:46:39;;;;;;;;;;;22.40;45.30;;;;;;1521772;76;701;-58
2021/10/13 01:48:41;;;;;;;;;;;22.40;45.30;;;;;;1529432;76;699;-60
2021/10/13 01:50:44;;;;;;;;;;;22.40;45.40;;;;;;1529054;76;737;-57
2021/10/13 01:52:48;;;;;;;;;;;22.40;45.30;;;;;;1530010;75;220869;-67
2021/10/13 01:54:50;;;;;;;;;;;22.40;45.30;;;;;;1550374;76;696;-68
2021/10/13 01:56:52;;;;;;;;;;;22.40;45.20;;;;;;1554073;76;618;-68
2021/10/13 01:58:55;;;;;;;;;;;22.40;45.20;;;;;;1551263;76;683;-68
2021/10/13 02:00:57;;;;;;;;;;;22.40;45.30;;;;;;1553960;76;781;-66
2021/10/13 02:02:59;;;;;;;;;;;22.40;45.20;;;;;;1536376;76;1205;-66
2021/10/13 02:05:01;;;;;;;;;;;22.40;45.20;;;;;;1522018;77;1936;-66
2021/10/13 02:07:03;;;;;;;;;;;22.40;45.20;;;;;;1525903;77;734;-68
2021/10/13 02:09:05;;;;;;;;;;;22.40;45.20;;;;;;1525928;77;709;-69
2021/10/13 02:11:07;;;;;;;;;;;22.40;45.20;;;;;;1526229;77;694;-70
2021/10/13 02:13:08;;;;;;;;;;;22.40;45.20;;;;;;1525090;76;1140;-71
2021/10/13 02:15:11;;;;;;;;;;;22.40;45.30;;;;;;1518424;77;790;-71
2021/10/13 02:17:12;;;;;;;;;;;22.40;45.30;;;;;;1528359;77;839;-70
2021/10/13 02:19:15;;;;;;;;;;;22.40;45.30;;;;;;1525029;77;762;-70
2021/10/13 02:21:18;;;;;;;;;;;22.40;45.30;;;;;;1525745;77;722;-70
2021/10/13 02:23:20;;;;;;;;;;;22.40;45.10;;;;;;1525744;76;1150;-70
2021/10/13 02:25:22;;;;;;;;;;;22.30;45.00;;;;;;1536110;77;1937;-67
2021/10/13 02:27:24;;;;;;;;;;;22.30;45.10;;;;;;1508051;77;690;-70
2021/10/13 02:29:26;;;;;;;;;;;22.30;45.10;;;;;;1521445;77;819;-70
2021/10/13 02:31:28;;;;;;;;;;;22.40;45.10;;;;;;1522894;77;754;-70
2021/10/13 02:33:30;;;;;;;;;;;22.40;45.10;;;;;;1520183;77;1123;-71
2021/10/13 02:35:32;;;;;;;;;;;22.30;45.20;;;;;;1532980;77;673;-70
2021/10/13 02:37:34;;;;;;;;;;;22.30;45.20;;;;;;1522006;77;723;-71
2021/10/13 02:39:36;;;;;;;;;;;22.30;45.20;;;;;;1527524;77;753;-70
2021/10/13 02:41:37;;;;;;;;;;;22.30;45.20;;;;;;1525856;77;655;-68
2021/10/13 02:43:40;;;;;;;;;;;22.30;45.10;;;;;;1531579;76;1113;-71
2021/10/13 02:45:43;;;;;;;;;;;22.30;45.10;;;;;;1525749;77;1936;-72
2021/10/13 02:47:46;;;;;;;;;;;22.20;45.00;;;;;;1530951;77;764;-70
2021/10/13 02:49:59;;;;;;;;;;;22.30;45.20;;;;;;1526043;77;666;-71
2021/10/13 02:52:02;;;;;;;;;;;22.30;45.30;;;;;;1525139;76;1134;-71
2021/10/13 02:54:06;;;;;;;;;;;22.30;45.40;;;;;;1526453;77;776;-70
2021/10/13 02:56:14;;;;;;;;;;;22.30;45.50;;;;;;1507882;76;1347;-72
2021/10/13 02:58:18;;;;;;;;;;;22.30;45.60;;;;;;1515122;77;721;-70
2021/10/13 03:00:20;;;;;;;;;;;22.30;45.60;;;;;;1520690;77;1434;-70
2021/10/13 03:02:24;;;;;;;;;;;22.30;45.70;;;;;;1515840;77;1161;-71
2021/10/13 03:04:26;;;;;;;;;;;22.30;45.70;;;;;;1514748;77;1008;-71
2021/10/13 03:06:30;;;;;;;;;;;22.30;45.80;;;;;;1514727;77;1933;-73
2021/10/13 03:08:33;;;;;;;;;;;22.20;45.70;;;;;;1530875;77;998;-72
2021/10/13 03:10:35;;;;;;;;;;;22.30;46.00;;;;;;1516090;77;729;-71
2021/10/13 03:12:39;;;;;;;;;;;22.30;46.10;;;;;;1515043;77;1175;-72
2021/10/13 03:14:41;;;;;;;;;;;22.20;46.00;;;;;;1518900;77;899;-70
2021/10/13 03:16:42;;;;;;;;;;;22.30;46.20;;;;;;1520978;77;764;-70
2021/10/13 03:18:44;;;;;;;;;;;22.30;46.20;;;;;;1516503;77;731;-70
2021/10/13 03:20:46;;;;;;;;;;;22.20;46.00;;;;;;1527986;77;734;-72
2021/10/13 03:22:48;;;;;;;;;;;22.20;46.00;;;;;;1486266;77;1164;-70
2021/10/13 03:24:50;;;;;;;;;;;22.20;46.00;;;;;;1517303;77;1108;-70
2021/10/13 03:26:52;;;;;;;;;;;22.20;46.00;;;;;;1528798;77;1965;-67
2021/10/13 03:28:54;;;;;;;;;;;22.20;46.10;;;;;;1514591;77;734;-70
2021/10/13 03:30:56;;;;;;;;;;;22.20;46.10;;;;;;1526830;77;696;-70
2021/10/13 03:32:57;;;;;;;;;;;22.20;46.10;;;;;;1514974;77;1134;-70
2021/10/13 03:34:59;;;;;;;;;;;22.20;46.20;;;;;;1517498;77;730;-69
2021/10/13 03:37:01;;;;;;;;;;;22.20;46.30;;;;;;1514972;77;735;-70
2021/10/13 03:39:03;;;;;;;;;;;22.20;46.30;;;;;;1517278;77;792;-69
2021/10/13 03:41:05;;;;;;;;;;;22.30;46.40;;;;;;1490081;78;718;-69
2021/10/13 03:43:08;;;;;;;;;;;22.20;46.30;;;;;;1517967;77;1159;-69
2021/10/13 03:45:14;;;;;;;;;;;22.30;46.50;;;;;;1515783;77;1930;-71
2021/10/13 03:47:16;;;;;;;;;;;22.20;46.40;;;;;;1504215;77;671;-71
2021/10/13 03:49:18;;;;;;;;;;;22.30;46.50;;;;;;1528793;77;737;-71
2021/10/13 03:51:20;;;;;;;;;;;22.20;46.40;;;;;;1537322;77;729;-71
2021/10/13 03:53:22;;;;;;;;;;;22.20;46.30;;;;;;1528645;77;1171;-71
2021/10/13 03:55:23;;;;;;;;;;;22.30;46.50;;;;;;1515530;78;593;-71
2021/10/13 03:57:25;;;;;;;;;;;22.30;46.50;;;;;;1517460;77;686;-71
2021/10/13 03:59:27;;;;;;;;;;;22.30;46.50;;;;;;1528837;77;686;-71
2021/10/13 04:01:29;;;;;;;;;;;22.30;46.50;;;;;;1521326;77;672;-72
2021/10/13 04:03:31;;;;;;;;;;;22.30;46.50;;;;;;1515079;77;1091;-71
2021/10/13 04:05:33;;;;;;;;;;;22.30;46.50;;;;;;1517178;77;1935;-72
2021/10/13 04:07:35;;;;;;;;;;;22.20;46.50;;;;;;1519838;77;736;-73
2021/10/13 04:09:36;;;;;;;;;;;22.20;46.50;;;;;;1519605;77;772;-72
2021/10/13 04:11:38;;;;;;;;;;;22.20;46.50;;;;;;1518655;77;774;-72
2021/10/13 04:13:40;;;;;;;;;;;22.30;46.60;;;;;;1514904;77;1075;-72
2021/10/13 04:15:42;;;;;;;;;;;22.20;46.40;;;;;;1515372;77;628;-72
2021/10/13 04:17:44;;;;;;;;;;;22.20;46.40;;;;;;1522137;77;702;-72
2021/10/13 04:19:46;;;;;;;;;;;22.20;46.40;;;;;;1520191;77;695;-71
2021/10/13 04:21:48;;;;;;;;;;;22.20;46.40;;;;;;1515664;77;744;-70
2021/10/13 04:23:50;;;;;;;;;;;22.20;46.50;;;;;;1523163;77;751;-71
2021/10/13 04:25:51;;;;;;;;;;;22.20;46.40;;;;;;1519024;77;1941;-72
2021/10/13 04:27:53;;;;;;;;;;;22.10;46.40;;;;;;1515500;77;734;-68
2021/10/13 04:29:55;;;;;;;;;;;22.20;46.40;;;;;;1518016;77;723;-70
2021/10/13 04:31:57;;;;;;;;;;;22.20;46.40;;;;;;1516032;77;1090;-72
2021/10/13 04:33:59;;;;;;;;;;;22.20;46.40;;;;;;1526662;77;715;-72
2021/10/13 04:36:01;;;;;;;;;;;22.20;46.40;;;;;;1525352;77;796;-72
2021/10/13 04:38:04;;;;;;;;;;;22.10;46.40;;;;;;1520884;77;952;-72
2021/10/13 04:40:06;;;;;;;;;;;22.10;46.50;;;;;;1520073;77;764;-72
2021/10/13 04:42:08;;;;;;;;;;;22.20;46.40;;;;;;1514988;77;1068;-71
2021/10/13 04:44:10;;;;;;;;;;;22.10;46.40;;;;;;1519624;77;881;-71
2021/10/13 04:46:11;;;;;;;;;;;22.10;46.40;;;;;;1515190;77;1931;-70
2021/10/13 04:48:13;;;;;;;;;;;22.10;46.50;;;;;;1516730;77;818;-70
2021/10/13 04:50:15;;;;;;;;;;;22.10;46.50;;;;;;1503089;77;801;-71
2021/10/13 04:52:17;;;;;;;;;;;22.10;46.50;;;;;;1515008;77;1195;-71
2021/10/13 04:54:19;;;;;;;;;;;22.10;46.50;;;;;;1515754;77;851;-72
2021/10/13 04:56:21;;;;;;;;;;;22.10;46.60;;;;;;1515337;77;731;-73
2021/10/13 04:58:23;;;;;;;;;;;22.10;46.50;;;;;;1514660;77;663;-71
2021/10/13 05:00:25;;;;;;;;;;;22.10;46.50;;;;;;1515682;77;823;-72
2021/10/13 05:02:27;;;;;;;;;;;22.20;46.70;;;;;;1514519;77;1163;-72
2021/10/13 05:04:29;;;;;;;;;;;22.10;46.70;;;;;;1515742;77;729;-71
2021/10/13 05:06:31;;;;;;;;;;;22.10;46.70;;;;;;1519008;77;1940;-72
2021/10/13 05:08:33;;;;;;;;;;;22.10;46.70;;;;;;1536551;77;777;-69
2021/10/13 05:10:37;;;;;;;;;;;22.10;46.80;;;;;;1515170;77;706;-69
2021/10/13 05:12:38;;;;;;;;;;;22.10;46.70;;;;;;1515054;77;1706;-70
2021/10/13 05:14:40;;;;;;;;;;;22.20;46.70;;;;;;1515086;77;650;-70
2021/10/13 05:16:42;;;;;;;;;;;22.30;46.80;;;;;;1514436;77;659;-70
2021/10/13 05:18:44;;;;;;;;;;;22.30;46.60;;;;;;1515030;77;789;-70
2021/10/13 05:20:46;;;;;;;;;;;22.20;46.30;;;;;;1515784;77;720;-70
2021/10/13 05:22:48;;;;;;;;;;;22.20;46.20;;;;;;1515246;77;1123;-71
2021/10/13 05:24:49;;;;;;;;;;;22.20;46.10;;;;;;1515589;77;846;-70
2021/10/13 05:26:51;;;;;;;;;;;22.20;46.00;;;;;;1515601;77;2087;-69
2021/10/13 05:28:53;;;;;;;;;;;22.20;45.90;;;;;;1515559;77;730;-71
2021/10/13 05:30:55;;;;;;;;;;;22.10;45.80;;;;;;1515901;77;663;-69
2021/10/13 05:32:57;;;;;;;;;;;22.10;45.80;;;;;;1515085;77;1136;-71
2021/10/13 05:34:59;;;;;;;;;;;22.20;45.70;;;;;;1528696;77;728;-69
2021/10/13 05:37:01;;;;;;;;;;;22.20;45.70;;;;;;1518011;77;741;-70
2021/10/13 05:39:02;;;;;;;;;;;22.10;45.60;;;;;;1519234;77;706;-70
2021/10/13 05:41:04;;;;;;;;;;;22.10;45.60;;;;;;1516037;77;821;-69
2021/10/13 05:43:06;;;;;;;;;;;22.10;45.60;;;;;;1515457;77;1129;-70
2021/10/13 05:45:08;;;;;;;;;;;22.10;45.50;;;;;;1519107;77;707;-70
2021/10/13 05:47:10;;;;;;;;;;;22.10;45.40;;;;;;1521161;77;1933;-70
2021/10/13 05:49:12;;;;;;;;;;;22.10;45.40;;;;;;1517959;77;743;-70
2021/10/13 05:51:14;;;;;;;;;;;22.10;45.40;;;;;;1528140;77;802;-69
2021/10/13 05:53:16;;;;;;;;;;;22.10;45.30;;;;;;1510413;77;1202;-68
2021/10/13 05:55:18;;;;;;;;;;;22.10;45.20;;;;;;1526459;77;791;-68
2021/10/13 05:57:19;;;;;;;;;;;22.10;45.20;;;;;;1514496;77;735;-68
2021/10/13 05:59:21;;;;;;;;;;;22.10;45.20;;;;;;1514823;77;694;-68
2021/10/13 06:01:23;;;;;;;;;;;22.10;45.10;;;;;;1515675;77;736;-68
2021/10/13 06:03:25;;;;;;;;;;;22.10;45.10;;;;;;1514994;77;1096;-69
2021/10/13 06:05:27;;;;;;;;;;;22.10;45.10;;;;;;1527785;77;674;-69
2021/10/13 06:07:29;;;;;;;;;;;22.10;45.00;;;;;;1525742;77;1939;-69
2021/10/13 06:09:31;;;;;;;;;;;22.00;44.90;;;;;;1518317;77;719;-69
2021/10/13 06:11:33;;;;;;;;;;;22.00;44.80;;;;;;1516273;77;763;-69
2021/10/13 06:13:35;;;;;;;;;;;22.00;44.70;;;;;;1516344;77;1099;-69
2021/10/13 06:15:37;;;;;;;;;;;22.00;44.70;;;;;;1515645;77;1058;-70
2021/10/13 06:17:38;;;;;;;;;;;22.00;44.80;;;;;;1514971;77;721;-69
2021/10/13 06:19:40;;;;;;;;;;;22.00;44.70;;;;;;1519309;77;730;-69
2021/10/13 06:21:42;;;;;;;;;;;22.00;44.70;;;;;;1515660;77;699;-69
2021/10/13 06:23:44;;;;;;;;;;;22.00;44.70;;;;;;1515468;77;1076;-69
2021/10/13 06:25:46;;;;;;;;;;;22.00;44.70;;;;;;1519173;77;771;-69
2021/10/13 06:27:48;;;;;;;;;;;22.00;44.70;;;;;;1515494;77;1945;-69
2021/10/13 06:29:50;;;;;;;;;;;22.00;44.60;;;;;;1515713;77;722;-70
2021/10/13 06:31:52;;;;;;;;;;;22.00;44.60;;;;;;1515575;77;1217;-68
2021/10/13 06:33:54;;;;;;;;;;;22.00;44.60;;;;;;1515771;77;797;-69
2021/10/13 06:35:56;;;;;;;;;;;22.00;44.60;;;;;;1515069;77;718;-69
2021/10/13 06:37:58;;;;;;;;;;;22.00;44.50;;;;;;1516899;77;675;-68
2021/10/13 06:40:00;;;;;;;;;;;22.00;44.50;;;;;;1517148;77;726;-70
2021/10/13 06:42:02;;;;;;;;;;;22.00;44.40;;;;;;1515637;77;1194;-69
2021/10/13 06:44:03;;;;;;;;;;;22.00;44.40;;;;;;1517203;77;749;-69
2021/10/13 06:46:06;;;;;;;;;;;22.00;44.50;;;;;;1516638;77;726;-69
2021/10/13 06:48:08;;;;;;;;;;;22.00;44.40;;;;;;1516938;77;1917;-70
2021/10/13 06:50:10;;;;;;;;;;;22.00;44.50;;;;;;1515829;77;742;-68
2021/10/13 06:52:11;;;;;;;;;;;22.00;44.50;;;;;;1516899;77;1193;-67
2021/10/13 06:54:13;;;;;;;;;;;22.00;44.30;;;;;;1516620;77;716;-69
2021/10/13 06:56:15;;;;;;;;;;;22.00;43.20;;;;;;1517090;77;793;-68
2021/10/13 06:58:17;;;;;;;;;;;22.00;42.70;;;;;;1517380;77;726;-66
2021/10/13 07:00:19;;;;;;;;;;;22.00;42.30;;;;;;1516289;77;782;-67
2021/10/13 07:02:21;;;;;;;;;;;21.90;42.00;;;;;;1515660;77;1170;-65
2021/10/13 07:04:23;;;;;;;;;;;21.90;41.70;;;;;;1516198;77;763;-67
2021/10/13 07:06:25;;;;;;;;;;;21.90;41.60;;;;;;1522675;77;1950;-67
2021/10/13 07:08:27;;;;;;;;;;;21.90;41.40;;;;;;1515189;77;716;-67
2021/10/13 07:10:29;;;;;;;;;;;21.80;41.00;;;;;;1515336;77;660;-67
2021/10/13 07:12:32;;;;;;;;;;;21.80;41.10;;;;;;1515635;77;1083;-68
2021/10/13 07:14:34;;;;;;;;;;;21.80;41.10;;;;;;1514948;77;758;-67
2021/10/13 07:16:36;;;;;;;;;;;21.80;40.90;;;;;;1519606;77;767;-67
2021/10/13 07:18:38;;;;;;;;;;;21.80;40.90;;;;;;1515176;78;702;-67
2021/10/13 07:20:40;;;;;;;;;;;21.70;40.70;;;;;;1515210;77;754;-68
2021/10/13 07:22:42;;;;;;;;;;;21.80;40.70;;;;;;1520857;77;1145;-68
2021/10/13 07:24:43;;;;;;;;;;;21.70;40.80;;;;;;1521676;77;718;-68
2021/10/13 07:26:45;;;;;;;;;;;21.80;40.70;;;;;;1528554;77;1929;-67
2021/10/13 07:28:47;;;;;;;;;;;21.70;40.40;;;;;;1527126;77;706;-68
2021/10/13 07:30:49;;;;;;;;;;;21.70;40.20;;;;;;1523084;77;744;-67
2021/10/13 07:32:51;;;;;;;;;;;21.70;40.00;;;;;;1518762;77;1135;-66
2021/10/13 07:34:53;;;;;;;;;;;21.70;39.70;;;;;;1515614;77;723;-68
2021/10/13 07:36:55;;;;;;;;;;;21.70;39.70;;;;;;1519413;77;772;-68
2021/10/13 07:38:57;;;;;;;;;;;21.70;39.20;;;;;;1515674;77;753;-68
2021/10/13 07:40:59;;;;;;;;;;;21.70;39.70;;;;;;1514858;78;650;-68
2021/10/13 07:43:01;;;;;;;;;;;21.70;39.60;;;;;;1515361;77;1129;-68
2021/10/13 07:45:03;;;;;;;;;;;21.60;39.60;;;;;;1515623;77;731;-67
2021/10/13 07:47:04;;;;;;;;;;;21.60;39.60;;;;;;1518521;77;1954;-67
2021/10/13 07:49:06;;;;;;;;;;;21.60;39.70;;;;;;1515466;77;710;-67
2021/10/13 07:51:08;;;;;;;;;;;21.60;39.60;;;;;;1514558;77;761;-67
2021/10/13 07:53:10;;;;;;;;;;;21.70;39.60;;;;;;1522804;74;228948;-74
2021/10/13 07:55:12;;;;;;;;;;;21.60;39.50;;;;;;1538905;75;798;-74
2021/10/13 07:57:14;;;;;;;;;;;21.60;39.40;;;;;;1542395;76;691;-75
2021/10/13 07:59:16;;;;;;;;;;;21.60;39.20;;;;;;1512672;77;746;-77
2021/10/13 08:01:17;;;;;;;;;;;21.60;39.20;;;;;;1510769;78;749;-75
2021/10/13 08:03:19;;;;;;;;;;;21.60;39.10;;;;;;1511647;77;1196;-75
2021/10/13 08:05:21;;;;;;;;;;;21.60;39.10;;;;;;1508554;79;729;-73
2021/10/13 08:07:23;;;;;;;;;;;21.60;38.90;;;;;;1535777;77;1952;-75
2021/10/13 08:09:25;;;;;;;;;;;21.60;39.10;;;;;;1507892;77;761;-75
2021/10/13 08:11:27;;;;;;;;;;;21.60;39.00;;;;;;1508857;79;756;-75
2021/10/13 08:13:29;;;;;;;;;;;21.60;38.80;;;;;;1520434;78;1135;-77
2021/10/13 08:15:31;;;;;;;;;;;21.60;38.60;;;;;;1515651;78;716;-78
2021/10/13 08:17:32;;;;;;;;;;;21.60;38.60;;;;;;1535045;77;746;-75
2021/10/13 08:19:34;;;;;;;;;;;21.60;38.70;;;;;;1518359;77;730;-75
2021/10/13 08:21:36;;;;;;;;;;;21.60;38.60;;;;;;1518967;78;756;-75
2021/10/13 08:23:38;;;;;;;;;;;21.70;38.60;;;;;;1535787;77;1061;-74
2021/10/13 08:25:40;;;;;;;;;;;21.70;38.60;;;;;;1518219;78;729;-75
2021/10/13 08:27:42;;;;;;;;;;;21.80;38.50;;;;;;1519095;77;1942;-75
2021/10/13 08:29:44;;;;;;;;;;;21.90;38.60;;;;;;1532076;76;818;-76
2021/10/13 08:31:45;;;;;;;;;;;21.80;38.30;;;;;;1522835;78;806;-73
2021/10/13 08:33:48;;;;;;;;;;;21.80;37.70;;;;;;1519868;78;1129;-72
2021/10/13 08:35:50;;;;;;;;;;;21.80;37.60;;;;;;1515726;78;763;-75
2021/10/13 08:37:52;;;;;;;;;;;21.80;37.10;;;;;;1535863;76;777;-70
2021/10/13 08:39:54;;;;;;;;;;;21.70;37.00;;;;;;1518341;78;776;-71
2021/10/13 08:41:56;;;;;;;;;;;21.70;36.90;;;;;;1519577;78;768;-72
2021/10/13 08:43:58;;;;;;;;;;;21.70;37.00;;;;;;1518780;78;1118;-71
2021/10/13 08:45:59;;;;;;;;;;;21.80;36.90;;;;;;1535804;76;790;-71
2021/10/13 08:48:02;;;;;;;;;;;21.80;37.00;;;;;;1518089;77;1944;-72
2021/10/13 08:50:04;;;;;;;;;;;21.80;37.00;;;;;;1519002;78;755;-71
2021/10/13 08:52:09;;;;;;;;;;;21.80;37.10;;;;;;1535769;77;774;-72
2021/10/13 08:54:13;;;;;;;;;;;21.80;37.00;;;;;;1500021;79;1161;-71
2021/10/13 08:56:14;;;;;;;;;;;21.80;36.90;;;;;;1503744;77;1499;-71
2021/10/13 08:58:18;;;;;;;;;;;21.80;36.40;;;;;;1508928;77;740;-71
2021/10/13 09:00:23;;;;;;;;;;;21.70;36.40;;;;;;1534594;77;730;-71
2021/10/13 09:02:42;;;;;;;;;;;21.70;36.30;;;;;;1508800;79;1143;-72
2021/10/13 09:04:45;;;;;;;;;;;21.70;36.30;;;;;;1506518;77;1420;-74
2021/10/13 09:06:47;;;;;;;;;;;21.70;36.30;;;;;;1507546;77;1025;-71
2021/10/13 09:08:52;;;;;;;;;;;21.70;36.00;;;;;;1473756;78;1950;-72
2021/10/13 09:10:55;;;;;;;;;;;21.80;36.20;;;;;;1508400;78;809;-75
2021/10/13 09:12:58;;;;;;;;;;;21.80;36.00;;;;;;1508599;78;1137;-71
2021/10/13 09:15:12;;;;;;;;;;;21.70;36.10;;;;;;1507894;78;820;-71
2021/10/13 09:17:16;;;;;;;;;;;21.80;36.00;;;;;;1535739;76;777;-72
2021/10/13 09:19:18;;;;;;;;;;;21.80;35.90;;;;;;1504306;78;786;-72
2021/10/13 09:21:20;;;;;;;;;;;21.70;35.80;;;;;;1516435;76;807;-75
2021/10/13 09:23:28;;;;;;;;;;;21.70;35.90;;;;;;1493568;78;1183;-71
2021/10/13 09:25:26;;;;;;;;;;;21.70;35.60;;;;;;1523616;76;1614;-72
2021/10/13 09:27:31;;;;;;;;;;;21.70;35.70;;;;;;1521236;78;1922;-70
2021/10/13 09:29:33;;;;;;;;;;;21.60;35.30;;;;;;1519650;78;699;-71
2021/10/13 09:31:35;;;;;;;;;;;21.60;35.70;;;;;;1522244;78;792;-72
2021/10/13 09:33:36;;;;;;;;;;;21.60;35.90;;;;;;1535789;76;1154;-72
2021/10/13 09:35:43;;;;;;;;;;;21.60;36.20;;;;;;1518827;78;788;-71
2021/10/13 09:37:49;;;;;;;;;;;21.60;36.30;;;;;;1518074;77;1041;-71
2021/10/13 09:39:58;;;;;;;;;;;21.70;36.60;;;;;;1518094;78;1359;-72
2021/10/13 09:42:04;;;;;;;;;;;21.60;36.70;;;;;;1534864;76;719;-71
2021/10/13 09:44:14;;;;;;;;;;;21.70;36.90;;;;;;1517582;76;1142;-68
2021/10/13 09:46:16;;;;;;;;;;;21.60;36.90;;;;;;1521953;78;849;-73
2021/10/13 09:48:19;;;;;;;;;;;21.70;37.10;;;;;;1521778;78;1934;-74
2021/10/13 09:50:21;;;;;;;;;;;21.70;37.30;;;;;;1490425;79;1206;-72
2021/10/13 09:52:26;;;;;;;;;;;21.70;37.40;;;;;;1521493;76;1156;-74
2021/10/13 09:54:28;;;;;;;;;;;21.70;37.50;;;;;;1519860;78;1810;-71
2021/10/13 09:56:30;;;;;;;;;;;21.70;37.60;;;;;;1518919;78;773;-72
2021/10/13 09:58:34;;;;;;;;;;;21.80;37.60;;;;;;1517928;78;787;-71
2021/10/13 10:00:36;;;;;;;;;;;21.80;37.80;;;;;;1521440;76;731;-71
2021/10/13 10:02:42;;;;;;;;;;;21.80;37.80;;;;;;1517446;76;1160;-71
2021/10/13 10:04:45;;;;;;;;;;;21.80;38.00;;;;;;1522013;78;794;-71
2021/10/13 10:06:49;;;;;;;;;;;21.80;38.00;;;;;;1518067;78;781;-71
2021/10/13 10:08:59;;;;;;;;;;;21.90;38.20;;;;;;1505838;77;1943;-71
2021/10/13 10:11:06;;;;;;;;;;;21.90;38.20;;;;;;1514466;76;1579;-71
2021/10/13 10:13:08;;;;;;;;;;;21.80;38.10;;;;;;1519386;78;1137;-74
2021/10/13 10:15:10;;;;;;;;;;;21.90;38.30;;;;;;1520536;78;734;-74
2021/10/13 10:17:12;;;;;;;;;;;21.90;38.40;;;;;;1520439;78;764;-72
2021/10/13 10:19:18;;;;;;;;;;;21.90;38.40;;;;;;1535875;77;758;-74
2021/10/13 10:21:20;;;;;;;;;;;22.00;38.40;;;;;;1507574;77;799;-72
2021/10/13 10:23:33;;;;;;;;;;;22.00;38.40;;;;;;1520588;78;1182;-72
2021/10/13 10:25:36;;;;;;;;;;;22.00;38.40;;;;;;1516872;76;820;-71
2021/10/13 10:27:37;;;;;;;;;;;22.00;38.50;;;;;;1521330;78;1929;-71
2021/10/13 10:29:39;;;;;;;;;;;22.00;38.50;;;;;;1526149;77;570;-71
2021/10/13 10:31:43;;;;;;;;;;;22.00;38.60;;;;;;1522297;77;794;-73
2021/10/13 10:33:50;;;;;;;;;;;22.00;38.60;;;;;;1519676;76;1554;-71
2021/10/13 10:35:52;;;;;;;;;;;22.00;38.60;;;;;;1536492;76;723;-71
2021/10/13 10:37:55;;;;;;;;;;;22.00;38.70;;;;;;1507928;78;723;-71
2021/10/13 10:39:58;;;;;;;;;;;22.10;38.80;;;;;;1525300;76;696;-72
2021/10/13 10:42:00;;;;;;;;;;;22.00;38.70;;;;;;1522967;76;747;-75
2021/10/13 10:44:19;;;;;;;;;;;22.00;38.70;;;;;;1534946;76;1119;-69
2021/10/13 10:46:21;;;;;;;;;;;22.10;38.80;;;;;;1501741;78;799;-72
2021/10/13 10:48:24;;;;;;;;;;;22.10;38.80;;;;;;1533987;76;1934;-72
2021/10/13 10:50:29;;;;;;;;;;;22.10;38.90;;;;;;1534918;76;684;-71
2021/10/13 10:52:31;;;;;;;;;;;22.10;38.90;;;;;;1533779;76;1128;-72
2021/10/13 10:54:33;;;;;;;;;;;22.20;38.90;;;;;;1533427;76;776;-72
2021/10/13 10:56:35;;;;;;;;;;;22.20;38.90;;;;;;1522058;77;730;-72
2021/10/13 10:58:37;;;;;;;;;;;22.10;38.90;;;;;;1491992;78;1337;-74
2021/10/13 11:00:38;;;;;;;;;;;22.20;38.90;;;;;;1522237;77;736;-71
2021/10/13 11:02:40;;;;;;;;;;;22.10;38.90;;;;;;1518823;77;1151;-72
2021/10/13 11:04:42;;;;;;;;;;;22.10;39.00;;;;;;1516471;77;724;-74
2021/10/13 11:06:44;;;;;;;;;;;22.20;39.00;;;;;;1524896;76;675;-71
2021/10/13 11:08:50;;;;;;;;;;;22.10;39.00;;;;;;1524830;77;1948;-72
2021/10/13 11:10:51;;;;;;;;;;;22.20;39.00;;;;;;1517339;77;796;-75
2021/10/13 11:12:54;;;;;;;;;;;22.20;39.00;;;;;;1517766;76;1111;-76
2021/10/13 11:15:11;;;;;;;;;;;22.10;39.00;;;;;;1513726;77;804;-74
2021/10/13 11:17:13;;;;;;;;;;;22.30;39.20;;;;;;1528677;76;827;-72
2021/10/13 11:19:16;;;;;;;;;;;22.10;39.00;;;;;;1519087;77;730;-72
2021/10/13 11:21:18;;;;;;;;;;;22.10;39.10;;;;;;1509788;77;749;-75
2021/10/13 11:23:20;;;;;;;;;;;22.20;39.20;;;;;;1522300;77;1174;-73
2021/10/13 11:25:22;;;;;;;;;;;22.30;39.30;;;;;;1487130;79;1410;-72
2021/10/13 11:27:24;;;;;;;;;;;22.20;39.20;;;;;;1521657;76;747;-72
2021/10/13 11:29:27;;;;;;;;;;;22.20;39.20;;;;;;1522768;77;1945;-72
2021/10/13 11:31:29;;;;;;;;;;;22.20;39.20;;;;;;1522367;77;716;-74
2021/10/13 11:33:31;;;;;;;;;;;22.10;39.20;;;;;;1523282;76;1150;-72
2021/10/13 11:35:32;;;;;;;;;;;22.20;39.20;;;;;;1515567;76;799;-76
2021/10/13 11:37:34;;;;;;;;;;;22.20;39.20;;;;;;1529990;77;796;-72
2021/10/13 11:39:37;;;;;;;;;;;22.10;39.30;;;;;;1518274;77;811;-72
2021/10/13 11:41:39;;;;;;;;;;;22.20;39.30;;;;;;1521387;77;829;-72
2021/10/13 11:43:41;;;;;;;;;;;22.10;39.30;;;;;;1519296;77;1141;-72
2021/10/13 11:45:47;;;;;;;;;;;22.10;39.40;;;;;;1527281;76;891;-72
2021/10/13 11:47:49;;;;;;;;;;;22.10;39.40;;;;;;1519561;76;896;-72
2021/10/13 11:49:58;;;;;;;;;;;22.10;39.50;;;;;;1522123;77;1941;-72
2021/10/13 11:52:07;;;;;;;;;;;22.10;39.50;;;;;;1523604;76;740;-76
2021/10/13 11:54:08;;;;;;;;;;;22.10;39.50;;;;;;1518179;77;1136;-72
2021/10/13 11:56:11;;;;;;;;;;;22.00;39.50;;;;;;1532326;76;741;-73
2021/10/13 11:58:14;;;;;;;;;;;22.10;39.70;;;;;;1522365;77;757;-72
2021/10/13 12:00:30;;;;;;;;;;;22.10;39.70;;;;;;1532266;76;1629;-71
2021/10/13 12:02:32;;;;;;;;;;;22.00;39.60;;;;;;1524967;76;1148;-71
2021/10/13 12:04:34;;;;;;;;;;;22.00;39.70;;;;;;1521824;76;796;-72
2021/10/13 12:06:42;;;;;;;;;;;22.00;39.70;;;;;;1522161;77;794;-72
2021/10/13 12:08:44;;;;;;;;;;;22.10;39.80;;;;;;1517439;77;1928;-71
2021/10/13 12:10:49;;;;;;;;;;;22.00;39.80;;;;;;1522350;77;788;-74
2021/10/13 12:13:03;;;;;;;;;;;22.00;39.80;;;;;;1524306;76;1138;-72